• Join FlightAware (Why Join?)
  • Login
  • US Flag 
05:30PM EST


 

Airport Tracker/Info


-or-


 

Live Flight TrackerFlight Track Log ✈ EJM685 ✈ 31-Dec-2012 ✈ KTEB - KRIL

Flight Track Log - Related Links

Times and Time Zones

All times are in EST time to prevent confusion due to time zone crossing. See the EJM685 flight status page for this flight to view local times or setup timezone preferences in your user account.

Time Position Orientation Groundspeed Altitude Reporting Facility
EST Latitude Longitude Course Direction KTS MPH feet Rate Location/Type
02:02PM 38.4380 -78.2610 North 47,200  Level FlightAware
02:05PM 38.4839 -78.5376 282° West  Level Estimated
02:06PM 38.5042 -78.6615 282° West  Level Estimated
02:07PM 38.5244 -78.7855 282° West  Level Estimated
02:08PM 38.5445 -78.9096 282° West  Level Estimated
02:09PM 38.5645 -79.0337 282° West  Level Estimated
02:10PM 38.5843 -79.1580 282° West  Level Estimated
02:11PM 38.6040 -79.2822 281° West  Level Estimated
02:12PM 38.6236 -79.4066 281° West  Level Estimated
02:13PM 38.6430 -79.5310 281° West  Level Estimated
02:14PM 38.6623 -79.6555 281° West  Level Estimated
02:15PM 38.6814 -79.7801 281° West  Level Estimated
02:16PM 38.7005 -79.9047 281° West  Level Estimated
02:17PM 38.7193 -80.0294 281° West  Level Estimated
02:18PM 38.7381 -80.1541 281° West  Level Estimated
02:19PM 38.7585 -80.2907 281° West  Level Estimated
02:20PM 38.7787 -80.4274 281° West  Level Estimated
02:21PM 38.7988 -80.5645 281° West  Level Estimated
02:22PM 38.8188 -80.7017 281° West  Level Estimated
02:23PM 38.8386 -80.8389 281° West  Level Estimated
02:24PM 38.8582 -80.9762 280° West  Level Estimated
02:25PM 38.8777 -81.1135 280° West  Level Estimated
02:26PM 38.8970 -81.2510 280° West  Level Estimated
02:27PM 38.9161 -81.3885 280° West  Level Estimated
02:28PM 38.9351 -81.5261 280° West  Level Estimated
02:29PM 38.9539 -81.6638 280° West  Level Estimated
02:30PM 38.9726 -81.8015 280° West  Level Estimated
02:31PM 38.9911 -81.9393 280° West  Level Estimated
02:31PM 41.7947 -77.7950 279° West 369 425 45,000  Level Cleveland Center
02:32PM 39.0094 -82.0772 280° West  Level Estimated
02:32PM 41.8106 -77.9253 279° West 369 425 45,000  Level Cleveland Center
02:33PM 39.0276 -82.2152 280° West  Level Estimated
02:33PM 41.8281 -78.0583 279° West 369 425 45,000  Level Cleveland Center
02:34PM 39.0456 -82.3532 280° West  Level Estimated
02:34PM 41.8433 -78.1889 279° West 369 425 45,000  Level Cleveland Center
02:35PM 39.0635 -82.4913 279° West  Level Estimated
02:36PM 39.0812 -82.6295 279° West  Level Estimated
02:36PM 41.8720 -78.3610 279° West 45,000  Level FlightAware
02:36PM 41.8758 -78.4581 279° West 369 425 45,000  Level Cleveland Center
02:37PM 41.8980 -78.5770 279° West 45,000  Level FlightAware
02:38PM 41.9060 -78.6490 279° West 45,000  Level FlightAware
02:39PM 41.9180 -78.7470 279° West 45,000  Level FlightAware
02:39PM 41.9310 -78.8630 279° West 45,000  Level FlightAware
02:40PM 41.9430 -78.9660 279° West 45,000  Level FlightAware
02:41PM 41.9560 -79.0790 279° West 45,000  Level FlightAware
02:42PM 41.9670 -79.1760 279° West 45,000  Level FlightAware
02:42PM 41.0620 -80.0000 215° Southwest 44,200  Descending FlightAware
02:43PM 41.9910 -79.3950 26° Northeast 45,000  Climbing FlightAware
02:44PM 42.0030 -79.5030 279° West 45,300  Climbing FlightAware
02:45PM 42.0130 -79.5960 278° West 45,700  Climbing FlightAware
02:46PM 42.0250 -79.7080 278° West 46,200  Climbing FlightAware
02:46PM 42.0350 -79.7950 279° West 46,500  Climbing FlightAware
02:47PM 41.2500 -80.0000 191° South 31,600  Descending FlightAware
02:48PM 42.0560 -79.9990 360° North 46,500 300 Climbing FlightAware
02:49PM 42.0690 -80.1180 278° West 46,500  Level FlightAware
02:49PM 42.0800 -80.2210 278° West 46,500  Level FlightAware
02:50PM 42.0950 -80.3690 278° West 46,700  Climbing FlightAware
02:51PM 42.7120 -83.7210 285° West 28,400  Descending FlightAware
02:52PM 42.1250 -80.6700 104° East 47,000 420 Climbing FlightAware
02:53PM 42.1350 -80.7670 278° West 47,000  Level FlightAware
02:54PM 42.1430 -80.8550 277° West 47,000  Level FlightAware
02:55PM 42.1570 -80.9960 278° West 47,000  Level FlightAware
02:56PM 42.1690 -81.1230 277° West 47,000  Level FlightAware
02:56PM 42.1780 -81.2220 277° West 47,000  Level FlightAware
02:57PM 42.1880 -81.3220 278° West 47,000  Level FlightAware
02:58PM 42.1960 -81.4090 277° West 47,000  Level FlightAware
02:58PM 42.2050 -81.5070 277° West 47,000  Level FlightAware
02:59PM 42.2170 -81.6410 277° West 47,000  Level FlightAware
03:00PM 42.2250 -81.7290 277° West 47,000  Level FlightAware
03:01PM 42.2370 -81.8680 277° West 47,000  Level FlightAware
03:02PM 42.2480 -81.9910 277° West 47,000  Level FlightAware
03:02PM 42.2570 -82.0990 276° West 47,000  Level FlightAware
03:03PM 42.2660 -82.2030 277° West 47,000  Level FlightAware
03:04PM 42.9030 -85.7140 285° West 32,900  Descending FlightAware
03:05PM 42.2860 -82.4340 103° East 47,000 420 Climbing FlightAware
03:06PM 42.2960 -82.5620 276° West 47,000  Level FlightAware
03:06PM 42.3030 -82.6410 277° West 47,000  Level FlightAware
03:07PM 42.3120 -82.7630 276° West 47,000  Level FlightAware
03:08PM 42.3230 -82.8910 277° West 47,000  Level FlightAware
03:09PM 42.3310 -82.9980 276° West 47,000  Level FlightAware
03:10PM 42.3440 -83.1690 276° West 47,000  Level FlightAware
03:11PM 42.3550 -83.3050 276° West 47,000  Level FlightAware
03:12PM 42.3670 -83.4710 276° West 47,000  Level FlightAware
03:13PM 42.3740 -83.5730 275° West 47,000  Level FlightAware
03:13PM 42.3820 -83.6800 276° West 47,000  Level FlightAware
03:14PM 42.3920 -83.8260 275° West 47,000  Level FlightAware
03:15PM 42.3990 -83.9260 275° West 47,000  Level FlightAware
03:15PM 42.4050 -84.0060 276° West 47,000  Level FlightAware
03:16PM 42.4100 -84.0840 275° West 47,000  Level FlightAware
03:17PM 42.4180 -84.2000 275° West 47,000  Level FlightAware
03:18PM 42.4250 -84.3070 275° West 47,000  Level FlightAware
03:18PM 42.4320 -84.4070 275° West 47,000  Level FlightAware
03:19PM 42.7120 -83.7210 61° Northeast 44,100  Descending FlightAware
03:20PM 42.4450 -84.6070 248° West 47,000 180 Climbing FlightAware
03:20PM 42.4510 -84.7050 275° West 47,000  Level FlightAware
03:21PM 42.4580 -84.8080 275° West 47,000  Level FlightAware
03:22PM 42.4640 -84.9130 274° West 47,000  Level FlightAware
03:22PM 42.4700 -85.0080 275° West 47,000  Level FlightAware
03:23PM 42.4760 -85.1150 274° West 47,000  Level FlightAware
03:24PM 42.4820 -85.2130 275° West 47,000  Level FlightAware
03:25PM 42.4880 -85.3250 274° West 47,000  Level FlightAware
03:25PM 42.4940 -85.4240 275° West 47,000  Level FlightAware
03:26PM 42.5000 -85.5300 274° West 47,000  Level FlightAware
03:27PM 42.5060 -85.6260 275° West 47,000  Level FlightAware
03:27PM 42.5110 -85.7250 274° West 47,000  Level FlightAware
03:28PM 42.5170 -85.8370 274° West 47,000  Level FlightAware
03:29PM 42.5220 -85.9340 274° West 47,000  Level FlightAware
03:29PM 42.5270 -86.0280 274° West 47,000  Level FlightAware
03:30PM 43.0930 -85.7140 22° Northeast 43,900  Descending FlightAware
03:31PM 42.5400 -86.2790 217° Southwest 47,000 720 Climbing FlightAware
03:32PM 43.2840 -85.7140 29° Northeast 43,900  Descending FlightAware
03:32PM 42.5500 -86.4900 218° Southwest 47,000 1,140 Climbing FlightAware
03:33PM 42.5550 -86.5850 274° West 47,000  Level FlightAware
03:34PM 42.5600 -86.7010 273° West 47,000  Level FlightAware
03:34PM 42.5558 -86.7647 273° West 400 460 47,000  Level Chicago Center
03:35PM 42.5619 -86.9128 273° West 399 459 47,000  Level Chicago Center
03:36PM 42.5678 -87.0592 273° West 394 453 47,000  Level Chicago Center
03:37PM 42.5731 -87.2053 273° West 391 450 47,000  Level Chicago Center
03:38PM 42.5789 -87.3550 273° West 396 456 47,000  Level Chicago Center
03:40PM 42.5980 -87.5850 273° West 47,000  Level FlightAware
03:41PM 42.5917 -87.6861 273° West 399 459 47,000  Level Chicago Center
03:42PM 42.5967 -87.8369 273° West 400 460 47,000  Level Chicago Center
03:43PM 42.6025 -87.9875 273° West 399 459 47,000  Level Chicago Center
03:44PM 42.6078 -88.1372 273° West 397 457 47,000  Level Chicago Center
03:45PM 42.6119 -88.2869 273° West 396 456 47,000  Level Chicago Center
03:46PM 42.6175 -88.4364 273° West 395 455 47,000  Level Chicago Center
03:47PM 43.2840 -85.7140 273° West 30,900  Descending FlightAware
03:48PM 42.6261 -88.7375 273° West 396 456 47,000 9,000 Climbing Chicago Center
03:49PM 42.6300 -88.8878 272° West 397 457 47,000  Level Chicago Center
03:50PM 42.6339 -89.0381 272° West 396 456 47,000  Level Chicago Center
03:51PM 42.6381 -89.2136 272° West 397 457 47,000  Level Chicago Center
03:52PM 42.6419 -89.3647 272° West 399 459 47,000  Level Chicago Center
03:53PM 42.6447 -89.5169 271° West 400 460 47,000  Level Chicago Center
03:54PM 42.6481 -89.6694 272° West 402 463 47,000  Level Chicago Center
03:55PM 42.6511 -89.8214 272° West 402 463 47,000  Level Chicago Center
03:56PM 42.6536 -89.9578 271° West 406 467 47,000  Level Chicago Center
03:57PM 42.6558 -90.1406 271° West 406 467 47,000  Level Chicago Center
03:58PM 42.6586 -90.2936 271° West 408 470 47,000  Level Chicago Center
03:59PM 42.6606 -90.4481 271° West 411 473 47,000  Level Chicago Center
04:00PM 42.6619 -90.6031 271° West 413 475 47,000  Level Chicago Center
04:01PM 42.6642 -90.7586 271° West 413 475 47,000  Level Chicago Center
04:02PM 42.6653 -90.9156 271° West 416 479 47,000  Level Chicago Center
04:03PM 42.6675 -91.0728 271° West 419 482 47,000  Level Chicago Center
04:04PM 42.6689 -91.2308 271° West 419 482 47,000  Level Chicago Center
04:05PM 42.6694 -91.4222 270° West 420 483 47,000  Level Chicago Center
04:06PM 42.6692 -91.5128 270° West 424 488 47,000  Level Minneapolis Center
04:07PM 42.6706 -91.6714 271° West 424 488 47,000  Level Minneapolis Center
04:08PM 42.6703 -91.8428 270° West 421 484 47,000  Level Minneapolis Center
04:09PM 42.6697 -92.0008 270° West 420 483 47,000  Level Minneapolis Center
04:10PM 42.6697 -92.1578 270° West 418 481 47,000  Level Minneapolis Center
04:11PM 42.6694 -92.3153 270° West 418 481 47,000  Level Minneapolis Center
04:12PM 42.6686 -92.4719 270° West 418 481 47,000  Level Minneapolis Center
04:13PM 42.6678 -92.6292 270° West 418 481 47,000  Level Minneapolis Center
04:14PM 42.6667 -92.7847 269° West 417 480 47,000  Level Minneapolis Center
04:15PM 42.6656 -92.9761 270° West 422 486 47,000  Level Minneapolis Center
04:16PM 42.6639 -93.1344 269° West 422 486 47,000  Level Minneapolis Center
04:17PM 42.6619 -93.2933 269° West 423 487 47,000  Level Minneapolis Center
04:18PM 42.6600 -93.4525 269° West 423 487 47,000  Level Minneapolis Center
04:19PM 42.6586 -93.6125 269° West 425 489 47,000  Level Minneapolis Center
04:20PM 42.6564 -93.7736 269° West 427 491 47,000  Level Minneapolis Center
04:21PM 42.6536 -93.9344 269° West 429 494 47,000  Level Minneapolis Center
04:22PM 42.6494 -94.1286 268° West 430 495 47,000  Level Minneapolis Center
04:23PM 42.6467 -94.2900 269° West 430 495 47,000  Level Minneapolis Center
04:24PM 42.6442 -94.4219 269° West 434 499 47,000  Level Minneapolis Center
04:25PM 42.6403 -94.6106 268° West 435 501 47,000  Level Minneapolis Center
04:26PM 42.6353 -94.7717 268° West 430 495 47,000  Level Minneapolis Center
04:27PM 42.6300 -94.9681 268° West 433 498 47,000  Level Minneapolis Center
04:28PM 42.6261 -95.1322 268° West 435 501 47,000  Level Minneapolis Center
04:29PM 42.6211 -95.2953 268° West 434 499 47,000  Level Minneapolis Center
04:30PM 42.6164 -95.4594 268° West 435 501 47,000  Level Minneapolis Center
04:31PM 42.6108 -95.6211 267° West 432 497 47,000  Level Minneapolis Center
04:32PM 42.6061 -95.7808 268° West 428 493 47,000  Level Minneapolis Center
04:33PM 42.6006 -95.9408 267° West 426 490 47,000  Level Minneapolis Center
04:34PM 42.5953 -96.1000 267° West 425 489 47,000  Level Minneapolis Center
04:35PM 42.5864 -96.2928 266° West 426 490 47,000  Level Minneapolis Center
04:36PM 42.5806 -96.4550 267° West 428 493 47,000  Level Minneapolis Center
04:38PM 42.5736 -96.6175 267° West 430 495 47,000  Level Minneapolis Center
04:39PM 42.5669 -96.7836 267° West 435 501 47,000  Level Minneapolis Center
04:40PM 42.5600 -96.9461 267° West 434 499 47,000  Level Minneapolis Center
04:41PM 42.5533 -97.1078 267° West 433 498 47,000  Level Minneapolis Center
04:42PM 42.5444 -97.3000 266° West 430 495 47,000  Level Minneapolis Center
04:43PM 42.5383 -97.4294 266° West 429 494 47,000  Level Minneapolis Center
04:44PM 42.5283 -97.6231 266° West 430 495 47,000  Level Minneapolis Center
04:45PM 42.5186 -97.8181 266° West 431 496 47,000  Level Minneapolis Center
04:46PM 42.5094 -97.9858 266° West 434 499 47,000  Level Minneapolis Center
04:47PM 42.5014 -98.1514 266° West 439 505 47,000  Level Minneapolis Center
04:48PM 42.4917 -98.3175 266° West 441 507 47,000  Level Minneapolis Center
04:49PM 42.4822 -98.4833 266° West 442 509 47,000  Level Minneapolis Center
04:50PM 42.4703 -98.6806 265° West 440 506 47,000  Level Minneapolis Center
04:51PM 42.4525 -98.8428 262° West 438 504 47,000  Level Minneapolis Center
04:52PM 42.4294 -99.0025 259° West 435 501 47,000  Level Minneapolis Center
04:53PM 42.4075 -99.1642 260° West 437 503 47,000  Level Minneapolis Center
04:54PM 42.3869 -99.3256 260° West 437 503 47,000  Level Minneapolis Center
04:55PM 42.3731 -99.4225 259° West 437 503 47,000  Level Denver Center
04:56PM 42.3506 -99.5844 259° West 438 504 47,000  Level Denver Center
04:57PM 42.3267 -99.7694 260° West 442 509 47,000  Level Denver Center
04:58PM 42.3042 -99.9236 259° West 440 506 47,000  Level Denver Center
04:59PM 42.2789 -100.1028 259° West 438 504 47,000  Level Denver Center
05:00PM 42.2572 -100.2581 259° West 439 505 47,000  Level Denver Center
05:01PM 42.2350 -100.4131 258° West 440 506 47,000  Level Denver Center
05:02PM 42.2089 -100.5925 259° West 439 505 47,000  Level Denver Center
05:03PM 42.1869 -100.7472 258° West 439 505 47,000  Level Denver Center
05:05PM 42.1568 -101.0550 259° West 47,000  Level FlightAware ADS-B
05:05PM 42.1442 -101.1390 259° West 438 504 47,000  Level FlightAware ADS-B
05:06PM 42.1319 -101.2200 258° West 438 504 47,000  Level FlightAware ADS-B
05:06PM 42.1176 -101.3140 258° West 438 504 47,000  Level FlightAware ADS-B
05:07PM 42.1054 -101.3950 259° West 399 459 47,000  Level FlightAware ADS-B
05:07PM 42.0927 -101.4790 259° West 443 510 47,000  Level FlightAware ADS-B
05:08PM 42.0802 -101.5590 258° West 444 511 47,000  Level FlightAware ADS-B
05:08PM 42.0675 -101.6420 258° West 443 510 47,000  Level FlightAware ADS-B
05:09PM 42.0544 -101.7260 258° West 440 506 47,000  Level FlightAware ADS-B
05:10PM 42.0289 -101.8890 258° West 437 503 47,000  Level FlightAware ADS-B
05:11PM 42.0049 -102.0410 258° West 443 510 47,000  Level FlightAware ADS-B
05:11PM 41.9913 -102.1250 258° West 445 512 47,000  Level FlightAware ADS-B
05:12PM 41.9726 -102.2420 258° West 444 511 47,000  Level FlightAware ADS-B
05:13PM 41.9496 -102.3830 258° West 445 512 47,000  Level FlightAware ADS-B
05:13PM 41.9363 -102.4650 258° West 452 520 47,000  Level FlightAware ADS-B
05:14PM 41.9230 -102.5460 258° West 454 522 47,000  Level FlightAware ADS-B
05:14PM 41.9095 -102.6270 257° West 441 507 47,000  Level FlightAware ADS-B
05:15PM 41.8943 -102.7190 258° West 442 509 47,000  Level FlightAware ADS-B
05:16PM 41.8764 -102.8260 257° West 439 505 47,000  Level FlightAware ADS-B
05:16PM 41.8624 -102.9100 257° West 446 513 47,000  Level FlightAware ADS-B
05:17PM 41.8483 -102.9930 257° West 434 499 47,000  Level FlightAware ADS-B
05:17PM 41.8346 -103.0740 257° West 437 503 47,000  Level FlightAware ADS-B
05:18PM 41.8198 -103.1610 257° West 443 510 47,000  Level FlightAware ADS-B
05:18PM 41.8062 -103.2390 257° West 421 484 47,000  Level FlightAware ADS-B
05:19PM 41.7923 -103.3200 257° West 443 510 47,000  Level FlightAware ADS-B
05:19PM 41.7779 -103.4040 257° West 443 510 47,000  Level FlightAware ADS-B
05:20PM 41.7628 -103.4900 257° West 448 516 47,000  Level FlightAware ADS-B
05:20PM 41.7477 -103.5770 257° West 449 517 47,000  Level FlightAware ADS-B
05:21PM 41.7321 -103.6660 257° West 449 517 47,000  Level FlightAware ADS-B
05:21PM 41.7168 -103.7520 257° West 444 511 47,000  Level FlightAware ADS-B
05:22PM 41.7024 -103.8340 257° West 457 526 47,000  Level FlightAware ADS-B
05:23PM 41.6878 -103.9160 257° West 449 517 47,000  Level FlightAware ADS-B
05:23PM 41.6730 -103.9980 256° West 473 544 47,000  Level FlightAware ADS-B
05:24PM 41.6579 -104.0820 256° West 453 521 47,000  Level FlightAware ADS-B
05:24PM 41.6431 -104.1640 256° West 396 456 47,000  Level FlightAware ADS-B
05:25PM 41.6282 -104.2460 256° West 451 519 47,000  Level FlightAware ADS-B
05:25PM 41.6122 -104.3330 256° West 450 518 47,000  Level FlightAware ADS-B
05:26PM 41.5963 -104.4210 256° West 457 526 47,000  Level FlightAware ADS-B
05:26PM 41.5806 -104.5050 256° West 452 520 47,000  Level FlightAware ADS-B
05:27PM 41.5637 -104.5980 256° West 455 524 47,000  Level FlightAware ADS-B
05:27PM 41.5422 -104.7130 256° West 428 493 47,000  Level FlightAware ADS-B
05:28PM 41.5311 -104.6989 256° West 449 517 47,000  Level Denver Center
05:29PM 41.4941 -104.9680 256° West 47,000  Level FlightAware ADS-B
05:30PM 41.4765 -105.0620 256° West 464 534 47,000  Level FlightAware ADS-B
05:30PM 41.4608 -105.1440 256° West 465 535 47,000  Level FlightAware ADS-B
05:31PM 41.4457 -105.2230 256° West 449 517 47,000  Level FlightAware ADS-B
05:31PM 41.4301 -105.3050 256° West 449 517 47,000  Level FlightAware ADS-B
05:32PM 41.3992 -105.4017 256° West 451 519 47,000  Level Denver Center
05:33PM 41.3644 -105.5814 256° West 449 517 47,000  Level Denver Center
05:34PM 41.3281 -105.7347 253° West 459 528 47,000  Level Denver Center
05:35PM 41.2578 -105.8622 234° Southwest 449 517 47,000 -120 Level Denver Center
05:36PM 41.1742 -106.0136 234° Southwest 453 521 46,800 -780 Descending Denver Center
05:37PM 41.1017 -106.1403 233° Southwest 449 517 45,500 -1,560 Descending Denver Center
05:38PM 41.0208 -106.2842 233° Southwest 453 521 43,700 -1,680 Descending Denver Center
05:39PM 40.9489 -106.4111 233° Southwest 452 520 42,100 -1,860 Descending Denver Center
05:40PM 40.8631 -106.5583 232° Southwest 452 520 40,000 -1,920 Descending Denver Center
05:41PM 40.7900 -106.6853 233° Southwest 453 521 38,200 -1,920 Descending Denver Center
05:42PM 40.7131 -106.8222 233° Southwest 454 522 36,100 -1,980 Descending Denver Center
05:43PM 40.6192 -106.9864 233° Southwest 463 533 33,800 -2,040 Descending Denver Center
05:44PM 40.5375 -107.1250 232° Southwest 472 543 31,600 -2,400 Descending Denver Center
05:45PM 40.4503 -107.2747 233° Southwest 475 547 29,000 -2,580 Descending Denver Center
05:46PM 40.3806 -107.3961 233° Southwest 447 514 26,400 -3,000 Descending Denver Center
05:47PM 40.3019 -107.5267 232° Southwest 414 476 22,900 -3,300 Descending Denver Center
05:49PM 40.2339 -107.6236 227° Southwest 387 445 19,600 -3,300 Descending Denver Center
05:50PM 40.1306 -107.6142 176° South 337 388 16,200 -2,700 Descending Denver Center
05:51PM 40.0547 -107.5664 154° Southeast 320 368 14,100 -1,080 Descending Denver Center
05:52PM 39.9719 -107.5131 154° Southeast 304 350 14,100  Level Denver Center
05:53PM 39.8978 -107.4667 154° Southeast 305 351 14,100  Level Denver Center
05:54PM 39.8269 -107.4219 154° Southeast 300 345 14,100  Level Denver Center
05:55PM 39.7519 -107.3758 155° Southeast 272 313 14,100  Level Denver Center
05:56PM 39.6864 -107.3353 155° Southeast 271 312 14,100 -600 Level Denver Center
05:57PM 39.6075 -107.2975 160° South 275 316 12,900 -720 Descending Denver Center
05:58PM 39.5475 -107.3211 197° South 260 299 12,700 -480 Descending Denver Center
05:59PM 39.5342 -107.3906 256° West 218 251 12,000 -1,080 Descending Denver Center
06:00PM 39.5325 -107.4639 268° West 184 212 10,500 -1,140 Descending Denver Center
06:01PM 39.5311 -107.5047 267° West 170 196 9,700 -960 Descending Denver Center
06:02PM 39.5300 -107.5606 269° West 146 168 8,600 -1,020 Descending Denver Center
06:03PM 39.5292 -107.6081 269° West 137 158 7,700 -900 Descending Denver Center
06:04PM 39.5283 -107.6553 269° West 134 154 6,800 -900 Descending Denver Center
06:05PM 39.5267 -107.7025 267° West 132 152 5,900 -900 Descending Denver Center